createdAt,value
2019-05-05T00:01:24.990Z,2.10
2019-05-05T00:06:29.655Z,2.10
2019-05-05T00:11:36.471Z,2.10
2019-05-05T00:16:55.075Z,2.10
2019-05-05T00:22:00.183Z,2.00
2019-05-05T00:27:05.289Z,1.90
2019-05-05T00:32:10.444Z,2.10
2019-05-05T00:37:15.487Z,2.00
2019-05-05T00:42:20.571Z,2.10
2019-05-05T00:47:42.479Z,2.20
2019-05-05T00:52:47.527Z,2.20
2019-05-05T00:57:54.665Z,2.20
2019-05-05T01:02:59.695Z,2.30
2019-05-05T01:08:06.516Z,2.20
2019-05-05T01:13:11.719Z,2.10
2019-05-05T01:18:16.859Z,1.90
2019-05-05T01:23:24.275Z,1.80
2019-05-05T01:28:28.822Z,1.90
2019-05-05T01:33:41.755Z,1.90
2019-05-05T01:38:48.583Z,1.90
2019-05-05T01:43:54.755Z,1.90
2019-05-05T01:48:59.695Z,2.00
2019-05-05T01:54:05.429Z,2.10
2019-05-05T01:59:10.771Z,2.20
2019-05-05T02:04:15.882Z,2.30
2019-05-05T02:09:21.000Z,2.30
2019-05-05T02:14:26.151Z,2.30
2019-05-05T02:19:31.239Z,2.30
2019-05-05T02:24:36.415Z,2.30
2019-05-05T02:29:44.638Z,2.20
2019-05-05T02:34:51.447Z,2.20
2019-05-05T02:40:02.515Z,2.20
2019-05-05T02:45:06.161Z,2.10
2019-05-05T02:50:11.344Z,2.10
2019-05-05T02:55:19.096Z,2.10
2019-05-05T03:00:25.823Z,2.00
2019-05-05T03:05:31.134Z,2.00
2019-05-05T03:10:36.351Z,2.00
2019-05-05T03:15:55.003Z,2.00
2019-05-05T03:21:04.639Z,2.00
2019-05-05T03:26:08.035Z,2.10
2019-05-05T03:31:16.116Z,2.00
2019-05-05T03:36:21.371Z,2.00
2019-05-05T03:41:40.898Z,2.00
2019-05-05T03:46:45.978Z,2.00
2019-05-05T03:51:51.159Z,1.80
2019-05-05T03:57:08.427Z,1.70
2019-05-05T04:02:20.978Z,1.70
2019-05-05T04:07:25.878Z,1.70
2019-05-05T04:12:34.582Z,1.70
2019-05-05T04:17:56.395Z,1.70
2019-05-05T04:23:03.570Z,1.70
2019-05-05T04:28:08.074Z,1.80
2019-05-05T04:33:14.206Z,1.80
2019-05-05T04:38:19.386Z,1.80
2019-05-05T04:43:24.708Z,1.90
2019-05-05T04:48:37.171Z,1.90
2019-05-05T04:54:00.132Z,2.00
2019-05-05T04:59:05.353Z,2.10
2019-05-05T05:04:17.691Z,2.30
2019-05-05T05:09:23.783Z,2.30
2019-05-05T05:14:28.883Z,2.40
2019-05-05T05:19:33.927Z,2.60
2019-05-05T05:24:38.907Z,2.70
2019-05-05T05:29:43.991Z,2.90
2019-05-05T05:34:48.998Z,3.10
2019-05-05T05:39:58.349Z,3.40
2019-05-05T05:45:08.583Z,3.60
2019-05-05T05:50:27.735Z,3.80
2019-05-05T05:55:34.252Z,4.10
2019-05-05T06:00:41.696Z,4.30
2019-05-05T06:05:46.091Z,4.60
2019-05-05T06:10:51.108Z,4.80
2019-05-05T06:15:56.096Z,5.20
2019-05-05T06:21:01.111Z,5.40
2019-05-05T06:26:07.148Z,5.50
2019-05-05T06:31:13.981Z,5.70
2019-05-05T06:36:19.078Z,5.90
2019-05-05T06:41:25.767Z,6.10
2019-05-05T06:46:44.607Z,6.30
2019-05-05T06:51:49.647Z,6.50
2019-05-05T06:56:54.902Z,6.50
2019-05-05T07:01:59.999Z,6.90
2019-05-05T07:07:05.345Z,6.90
2019-05-05T07:12:10.417Z,7.00
2019-05-05T07:17:15.371Z,7.10
2019-05-05T07:22:20.654Z,7.40
2019-05-05T07:27:25.654Z,7.60
2019-05-05T07:32:30.681Z,8.00
2019-05-05T07:37:35.751Z,8.20
2019-05-05T07:42:40.763Z,8.70
2019-05-05T07:47:47.397Z,8.70
2019-05-05T07:52:54.438Z,8.80
2019-05-05T07:57:59.260Z,9.20
2019-05-05T08:03:04.360Z,9.20
2019-05-05T08:08:09.399Z,9.30
2019-05-05T08:13:14.407Z,9.60
2019-05-05T08:18:21.015Z,10.10
2019-05-05T08:23:35.477Z,10.20
2019-05-05T08:28:43.488Z,10.30
2019-05-05T08:33:48.599Z,10.30
2019-05-05T08:38:54.616Z,9.80
2019-05-05T08:43:59.710Z,10.30
2019-05-05T08:49:04.827Z,10.70
2019-05-05T08:54:09.915Z,11.00
2019-05-05T08:59:14.863Z,10.00
2019-05-05T09:04:19.951Z,10.30
2019-05-05T09:09:25.058Z,10.80
2019-05-05T09:14:30.079Z,11.30
2019-05-05T09:19:35.192Z,11.80
2019-05-05T09:24:45.043Z,12.20
2019-05-05T09:29:50.023Z,12.00
2019-05-05T09:34:55.104Z,12.30
2019-05-05T09:40:00.226Z,11.30
2019-05-05T09:45:10.171Z,10.70
2019-05-05T09:50:16.893Z,10.60
2019-05-05T09:55:24.090Z,10.70
2019-05-05T10:00:30.279Z,11.20
2019-05-05T10:05:35.297Z,11.80
2019-05-05T10:10:40.306Z,11.70
2019-05-05T10:15:45.396Z,11.70
2019-05-05T10:20:50.574Z,11.60
2019-05-05T10:25:57.422Z,11.60
2019-05-05T10:31:04.606Z,12.00
2019-05-05T10:36:09.341Z,12.20
2019-05-05T10:41:14.489Z,12.20
2019-05-05T10:46:19.599Z,11.90
2019-05-05T10:51:24.687Z,12.20
2019-05-05T10:56:29.736Z,12.10
2019-05-05T11:01:34.675Z,11.80
2019-05-05T11:06:40.391Z,11.90
2019-05-05T11:11:45.474Z,12.30
2019-05-05T11:16:50.580Z,12.30
2019-05-05T11:21:55.519Z,11.90
2019-05-05T11:27:00.527Z,12.00
2019-05-05T11:32:07.321Z,12.20
2019-05-05T11:37:14.160Z,12.00
2019-05-05T11:42:19.200Z,12.10
2019-05-05T11:47:24.593Z,12.30
2019-05-05T11:52:29.714Z,12.60
2019-05-05T11:57:43.813Z,12.80
2019-05-05T12:02:49.567Z,12.80
2019-05-05T12:07:54.660Z,12.60
2019-05-05T12:13:01.335Z,12.80
2019-05-05T12:18:06.420Z,12.60
2019-05-05T12:23:11.527Z,12.70
2019-05-05T12:28:24.316Z,13.00
2019-05-05T12:33:29.491Z,13.10
2019-05-05T12:38:34.836Z,14.10
2019-05-05T12:43:39.994Z,14.80
2019-05-05T12:48:46.751Z,14.40
2019-05-05T12:53:53.758Z,13.40
2019-05-05T12:58:58.395Z,13.20
2019-05-05T13:04:03.664Z,13.30
2019-05-05T13:09:09.154Z,14.40
2019-05-05T13:14:14.584Z,15.00
2019-05-05T13:19:27.249Z,14.80
2019-05-05T13:24:34.830Z,15.10
2019-05-05T13:29:39.954Z,15.20
2019-05-05T13:34:44.899Z,15.10
2019-05-05T13:39:49.983Z,15.40
2019-05-05T13:44:59.194Z,14.90
2019-05-05T13:50:09.119Z,15.00
2019-05-05T13:55:16.888Z,15.50
2019-05-05T14:00:22.287Z,15.70
2019-05-05T14:05:27.471Z,15.90
2019-05-05T14:10:32.634Z,15.20
2019-05-05T14:15:37.847Z,14.40
2019-05-05T14:20:43.589Z,14.30
2019-05-05T14:25:48.870Z,13.30
2019-05-05T14:30:55.523Z,13.00
2019-05-05T14:36:04.979Z,13.10
2019-05-05T14:41:10.016Z,13.00
2019-05-05T14:46:15.051Z,13.10
2019-05-05T14:51:20.203Z,13.10
2019-05-05T14:56:35.592Z,13.60
2019-05-05T15:01:34.236Z,13.80
2019-05-05T15:06:43.968Z,13.70
2019-05-05T15:11:56.704Z,13.90
2019-05-05T15:17:03.635Z,13.40
2019-05-05T15:22:08.518Z,13.40
2019-05-05T15:27:13.555Z,13.40
2019-05-05T15:32:18.668Z,13.40
2019-05-05T15:37:23.904Z,13.40
2019-05-05T15:42:28.904Z,13.70
2019-05-05T15:47:34.429Z,13.80
2019-05-05T15:52:40.392Z,13.50
2019-05-05T15:57:45.478Z,13.70
2019-05-05T16:02:50.514Z,14.00
2019-05-05T16:07:55.569Z,14.20
2019-05-05T16:13:00.769Z,14.30
2019-05-05T16:18:23.971Z,15.30
2019-05-05T16:23:35.600Z,17.80
2019-05-05T16:28:40.244Z,19.70
2019-05-05T16:33:45.259Z,20.80
2019-05-05T16:38:50.346Z,20.10
2019-05-05T16:43:55.436Z,20.40
2019-05-05T16:49:00.542Z,21.40
2019-05-05T16:54:07.480Z,20.20
2019-05-05T16:59:13.891Z,19.70
2019-05-05T17:04:19.202Z,19.50
2019-05-05T17:09:24.317Z,19.00
2019-05-05T17:14:30.936Z,17.80
2019-05-05T17:19:37.641Z,18.00
2019-05-05T17:24:44.051Z,18.40
2019-05-05T17:29:49.219Z,18.50
2019-05-05T17:34:55.017Z,18.30
2019-05-05T17:40:04.546Z,18.10
2019-05-05T17:45:26.951Z,16.30
2019-05-05T17:50:49.815Z,15.10
2019-05-05T17:55:56.643Z,14.00
2019-05-05T18:01:03.674Z,13.20
2019-05-05T18:06:14.346Z,12.80
2019-05-05T18:11:35.019Z,12.60
2019-05-05T18:16:39.643Z,12.20
2019-05-05T18:21:44.764Z,12.00
2019-05-05T18:26:49.780Z,11.80
2019-05-05T18:31:54.811Z,11.60
2019-05-05T18:36:59.762Z,11.40
2019-05-05T18:42:13.956Z,11.20
2019-05-05T18:47:20.169Z,10.80
2019-05-05T18:52:25.351Z,10.50
2019-05-05T18:57:30.561Z,10.30
2019-05-05T19:02:53.620Z,10.00
2019-05-05T19:08:17.652Z,9.90
2019-05-05T19:13:24.473Z,9.60
2019-05-05T19:18:29.839Z,9.20
2019-05-05T19:23:35.619Z,8.90
2019-05-05T19:28:44.629Z,8.40
2019-05-05T19:33:47.539Z,8.20
2019-05-05T19:38:54.738Z,8.00
2019-05-05T19:44:01.831Z,7.80
2019-05-05T19:49:16.655Z,7.80
2019-05-05T19:54:21.608Z,7.80
2019-05-05T19:59:26.627Z,7.80
2019-05-05T20:04:33.603Z,7.70
2019-05-05T20:09:38.298Z,7.60
2019-05-05T20:14:43.627Z,7.50
2019-05-05T20:19:48.783Z,7.60
2019-05-05T20:24:54.867Z,7.50
2019-05-05T20:29:59.915Z,7.60
2019-05-05T20:35:09.995Z,7.60
2019-05-05T20:40:16.818Z,7.60
2019-05-05T20:45:23.858Z,7.60
2019-05-05T20:50:29.099Z,7.50
2019-05-05T20:55:34.188Z,7.30
2019-05-05T21:00:39.515Z,7.20
2019-05-05T21:05:44.587Z,7.00
2019-05-05T21:10:49.703Z,6.90
2019-05-05T21:15:54.708Z,6.80
2019-05-05T21:21:01.473Z,6.70
2019-05-05T21:26:08.219Z,6.50
2019-05-05T21:31:14.475Z,6.40
2019-05-05T21:36:19.678Z,6.20
2019-05-05T21:41:24.670Z,6.00
2019-05-05T21:46:30.843Z,5.80
2019-05-05T21:51:40.123Z,5.60
2019-05-05T21:56:46.863Z,5.40
2019-05-05T22:01:52.050Z,5.20
2019-05-05T22:06:57.511Z,5.00
2019-05-05T22:12:04.150Z,4.80
2019-05-05T22:17:10.395Z,4.60
2019-05-05T22:22:17.063Z,4.50
2019-05-05T22:27:23.788Z,4.30
2019-05-05T22:32:29.928Z,4.10
2019-05-05T22:37:35.036Z,4.00
2019-05-05T22:42:40.003Z,3.90
2019-05-05T22:47:45.112Z,3.80
2019-05-05T22:52:50.191Z,3.60
2019-05-05T22:57:55.267Z,3.50
2019-05-05T23:03:04.334Z,3.50
2019-05-05T23:08:09.022Z,3.40
2019-05-05T23:13:14.155Z,3.30
2019-05-05T23:18:26.711Z,3.20
2019-05-05T23:23:37.308Z,3.10
2019-05-05T23:28:44.269Z,3.00
2019-05-05T23:33:48.855Z,2.90
2019-05-05T23:38:54.849Z,2.80
2019-05-05T23:44:00.204Z,2.70
2019-05-05T23:49:05.230Z,2.60
2019-05-05T23:54:10.201Z,2.50
2019-05-05T23:59:15.159Z,2.60
